Time;durP1;ratioP1;P1;durP2;ratioP2;P2;SDS_P1;SDS_P2;PMS_P1;PMS_P2;Temp;Humidity;BMP_temperature;BMP_pressure;BME280_temperature;BME280_humidity;BME280_pressure;Samples;Min_cycle;Max_cycle;Signal;HPM_P1;HPM_P2
2022/06/01 00:02:15;;;;;;;20.42;14.85;;;10.60;99.90;;;;;;5089992;28;20044;-78
2022/06/01 00:04:40;;;;;;;17.67;12.52;;;10.60;99.90;;;;;;5087863;28;20044;-79
2022/06/01 00:07:06;;;;;;;19.40;14.10;;;10.60;99.90;;;;;;5083363;28;20043;-78
2022/06/01 00:09:31;;;;;;;15.77;12.93;;;10.70;99.90;;;;;;5087820;28;20410;-79
2022/06/01 00:11:57;;;;;;;16.55;14.20;;;10.60;99.90;;;;;;5061703;28;20040;-79
2022/06/01 00:14:23;;;;;;;15.38;11.98;;;10.70;99.90;;;;;;5071516;28;20051;-78
2022/06/01 00:16:49;;;;;;;17.20;13.02;;;10.60;99.90;;;;;;5080902;28;20032;-79
2022/06/01 00:19:15;;;;;;;14.50;10.90;;;10.50;99.90;;;;;;5083028;28;20051;-79
2022/06/01 00:24:25;;;;;;;14.80;11.98;;;10.40;99.90;;;;;;5079972;28;20047;-79
2022/06/01 00:26:51;;;;;;;17.27;13.13;;;10.30;99.90;;;;;;5091690;28;20044;-79
2022/06/01 00:29:17;;;;;;;16.00;12.75;;;10.40;99.90;;;;;;5091456;28;20512;-79
2022/06/01 00:31:43;;;;;;;16.80;12.52;;;10.40;99.90;;;;;;5088335;28;20078;-79
2022/06/01 00:34:09;;;;;;;15.57;13.23;;;10.40;99.90;;;;;;5082584;28;20055;-79
2022/06/01 00:36:34;;;;;;;15.32;13.13;;;10.40;99.90;;;;;;5089766;28;20047;-78
2022/06/01 00:39:00;;;;;;;17.02;14.38;;;10.40;99.90;;;;;;5083136;28;20675;-79
2022/06/01 00:41:29;;;;;;;20.30;14.25;;;10.30;99.90;;;;;;5074180;28;20036;-79
2022/06/01 00:43:55;;;;;;;16.50;14.10;;;10.20;99.90;;;;;;5085341;28;20056;-79
2022/06/01 00:46:20;;;;;;;18.27;13.90;;;10.20;99.90;;;;;;5087466;28;20084;-79
2022/06/01 00:48:52;;;;;;;18.83;13.40;;;10.20;99.90;;;;;;5090870;28;20040;-79
2022/06/01 00:51:23;;;;;;;15.18;12.95;;;10.20;99.90;;;;;;5073338;28;20522;-79
2022/06/01 00:53:51;;;;;;;14.07;11.73;;;10.30;99.90;;;;;;5073877;28;20386;-79
2022/06/01 00:56:22;;;;;;;16.70;12.65;;;10.30;99.90;;;;;;5091302;28;20127;-79
2022/06/01 00:58:51;;;;;;;17.27;14.07;;;10.30;99.90;;;;;;5090463;28;20179;-79
2022/06/01 01:01:20;;;;;;;17.60;14.35;;;10.40;99.90;;;;;;5084602;28;20040;-79
2022/06/01 01:03:49;;;;;;;15.35;12.85;;;10.30;99.90;;;;;;5088171;28;20044;-79
2022/06/01 01:06:27;;;;;;;20.23;12.65;;;10.40;99.90;;;;;;5090107;28;20160;-79
2022/06/01 01:08:54;;;;;;;13.70;11.73;;;10.40;99.90;;;;;;5100088;28;20145;-79
2022/06/01 01:11:30;;;;;;;17.08;11.18;;;10.30;99.90;;;;;;5090200;28;20363;-79
2022/06/01 01:13:57;;;;;;;15.10;12.50;;;10.30;99.90;;;;;;5078780;28;20546;-79
2022/06/01 01:16:24;;;;;;;14.82;12.15;;;10.30;99.90;;;;;;5083220;28;20046;-79
2022/06/01 01:18:51;;;;;;;13.98;11.60;;;10.30;99.90;;;;;;5090541;28;20055;-79
2022/06/01 01:21:47;;;;;;;16.48;13.27;;;10.20;99.90;;;;;;5078609;28;20065;-79
2022/06/01 01:24:16;;;;;;;15.02;12.55;;;10.10;99.90;;;;;;5085986;28;20134;-79
2022/06/01 01:26:48;;;;;;;13.55;11.82;;;10.10;99.90;;;;;;5089672;28;20080;-79
2022/06/01 01:29:15;;;;;;;14.85;11.88;;;10.10;99.90;;;;;;5082205;28;20040;-79
2022/06/01 01:31:43;;;;;;;15.13;13.30;;;10.10;99.90;;;;;;5090573;28;20490;-79
2022/06/01 01:34:09;;;;;;;16.20;13.50;;;10.10;99.90;;;;;;5085893;28;20038;-79
2022/06/01 01:36:46;;;;;;;16.67;14.38;;;10.20;99.90;;;;;;5082132;28;20321;-79
2022/06/01 01:39:15;;;;;;;14.75;12.68;;;10.20;99.90;;;;;;5090547;28;20515;-79
2022/06/01 01:41:52;;;;;;;18.38;14.68;;;10.10;99.90;;;;;;5083636;28;20485;-79
2022/06/01 01:44:41;;;;;;;17.38;13.13;;;10.10;99.90;;;;;;5086596;28;20126;-79
2022/06/01 01:47:07;;;;;;;16.83;14.43;;;10.20;99.90;;;;;;5089788;28;20044;-79
2022/06/01 01:49:36;;;;;;;16.73;12.50;;;10.20;99.90;;;;;;5086837;28;20047;-79
2022/06/01 01:52:12;;;;;;;19.02;14.88;;;10.20;99.90;;;;;;5086675;28;20040;-79
2022/06/01 01:55:02;;;;;;;18.27;15.43;;;10.20;99.90;;;;;;5071181;28;20123;-79
2022/06/01 01:57:57;;;;;;;18.23;14.35;;;10.20;99.90;;;;;;5070014;28;20518;-79
2022/06/01 02:00:28;;;;;;;16.85;15.00;;;10.20;99.90;;;;;;5068806;28;20085;-79
2022/06/01 02:03:30;;;;;;;22.60;15.77;;;10.20;99.90;;;;;;5088663;28;20032;-79
2022/06/01 02:06:28;;;;;;;17.95;13.70;;;10.20;99.90;;;;;;5090765;28;20494;-79
2022/06/01 02:09:08;;;;;;;15.23;13.50;;;10.10;99.90;;;;;;5092109;28;20122;-79
2022/06/01 02:14:50;;;;;;;17.70;15.02;;;10.00;99.90;;;;;;5084172;28;20037;-79
2022/06/01 02:17:30;;;;;;;20.45;15.80;;;10.00;99.90;;;;;;5080369;28;20056;-79
2022/06/01 02:20:03;;;;;;;19.52;15.43;;;9.90;99.90;;;;;;5088661;28;20047;-79
2022/06/01 02:22:29;;;;;;;19.23;15.90;;;9.90;99.90;;;;;;5094192;28;20435;-79
2022/06/01 02:24:55;;;;;;;19.90;14.95;;;9.80;99.90;;;;;;5094451;28;20137;-79
2022/06/01 02:27:21;;;;;;;18.63;15.02;;;9.90;99.90;;;;;;5094553;28;20052;-79
2022/06/01 02:29:59;;;;;;;19.60;14.77;;;9.90;99.90;;;;;;5093069;28;20455;-79
2022/06/01 02:32:28;;;;;;;21.30;15.30;;;9.90;99.90;;;;;;5103504;28;20032;-79
2022/06/01 02:34:58;;;;;;;20.52;16.27;;;9.90;99.90;;;;;;5075314;28;20037;-79
2022/06/01 02:37:29;;;;;;;19.27;15.90;;;9.90;99.90;;;;;;5094195;28;20031;-79
2022/06/01 02:39:56;;;;;;;22.67;15.93;;;10.00;99.90;;;;;;5090052;28;20444;-79
2022/06/01 02:42:30;;;;;;;19.02;15.57;;;10.00;99.90;;;;;;5089843;28;20043;-79
2022/06/01 02:45:08;;;;;;;20.00;14.60;;;10.10;99.90;;;;;;5092509;28;20115;-79
2022/06/01 02:47:39;;;;;;;17.23;14.45;;;10.10;99.90;;;;;;5085441;28;20477;-79
2022/06/01 02:50:07;;;;;;;19.02;16.05;;;10.20;99.90;;;;;;5093859;28;20451;-79
2022/06/01 02:52:34;;;;;;;18.70;13.98;;;10.20;99.90;;;;;;5092871;28;20087;-79
2022/06/01 02:54:59;;;;;;;19.75;14.88;;;10.20;99.90;;;;;;5085136;28;20039;-79
2022/06/01 02:57:25;;;;;;;19.25;14.60;;;10.30;99.90;;;;;;5093738;28;20036;-79
2022/06/01 02:59:52;;;;;;;17.00;15.05;;;10.30;99.90;;;;;;5092109;28;20090;-79
2022/06/01 03:02:18;;;;;;;20.33;15.48;;;10.40;99.90;;;;;;5077142;28;20147;-79
2022/06/01 03:04:44;;;;;;;17.45;15.18;;;10.40;99.90;;;;;;5093136;28;20562;-79
2022/06/01 03:07:11;;;;;;;18.75;14.98;;;10.50;99.90;;;;;;5085656;28;20517;-79
2022/06/01 03:09:37;;;;;;;17.65;14.40;;;10.50;99.90;;;;;;5081122;28;20052;-79
2022/06/01 03:12:04;;;;;;;19.15;16.48;;;10.50;99.90;;;;;;5075268;28;20035;-79
2022/06/01 03:14:30;;;;;;;17.90;14.95;;;10.50;99.90;;;;;;5084825;28;20135;-79
2022/06/01 03:16:57;;;;;;;19.10;16.95;;;10.50;99.90;;;;;;5075890;28;20032;-79
2022/06/01 03:19:23;;;;;;;20.20;15.77;;;10.50;99.90;;;;;;5076434;28;20109;-79
2022/06/01 03:21:49;;;;;;;19.58;17.20;;;10.60;99.90;;;;;;5087602;28;20051;-79
2022/06/01 03:24:15;;;;;;;19.67;16.25;;;10.60;99.90;;;;;;5088583;28;20048;-79
2022/06/01 03:26:42;;;;;;;19.55;16.65;;;10.60;99.90;;;;;;5088216;28;20044;-79
2022/06/01 03:29:07;;;;;;;21.02;16.58;;;10.60;99.90;;;;;;5080877;28;20097;-79
2022/06/01 03:31:33;;;;;;;21.05;17.83;;;10.60;99.90;;;;;;5072786;28;20036;-79
2022/06/01 03:33:59;;;;;;;21.30;16.52;;;10.60;99.90;;;;;;5090837;28;20413;-80
2022/06/01 03:36:25;;;;;;;23.23;17.17;;;10.60;99.90;;;;;;5089458;28;20067;-79
2022/06/01 03:38:51;;;;;;;19.35;17.08;;;10.70;99.90;;;;;;5056540;28;20448;-79
2022/06/01 03:41:17;;;;;;;22.27;18.15;;;10.70;99.90;;;;;;5085217;28;20170;-79
2022/06/01 03:46:29;;;;;;;22.35;16.30;;;10.60;99.90;;;;;;5092895;28;20126;-80
2022/06/01 03:48:54;;;;;;;21.92;17.08;;;10.70;99.90;;;;;;5092636;28;20052;-80
2022/06/01 03:51:20;;;;;;;19.05;17.02;;;10.70;99.90;;;;;;5092967;28;20043;-79
2022/06/01 03:53:45;;;;;;;21.20;16.42;;;10.70;99.90;;;;;;5091451;28;20035;-79
2022/06/01 03:56:11;;;;;;;19.95;16.65;;;10.70;99.90;;;;;;5086365;28;20624;-79
2022/06/01 03:58:37;;;;;;;25.33;17.85;;;10.80;99.90;;;;;;5092891;28;20043;-80
2022/06/01 04:01:05;;;;;;;22.10;17.17;;;10.80;99.90;;;;;;5100036;28;20084;-80
2022/06/01 04:03:31;;;;;;;20.38;16.75;;;10.80;99.90;;;;;;5095016;28;20444;-80
2022/06/01 04:05:56;;;;;;;22.05;18.42;;;10.90;99.90;;;;;;5092695;28;20040;-79
2022/06/01 04:08:22;;;;;;;21.23;16.77;;;10.90;99.90;;;;;;5091560;28;20051;-79
2022/06/01 04:10:49;;;;;;;20.48;17.55;;;10.90;99.90;;;;;;5082731;28;20115;-79
2022/06/01 04:13:15;;;;;;;25.33;18.73;;;10.90;99.90;;;;;;5071670;28;20051;-79
2022/06/01 04:15:41;;;;;;;19.65;16.65;;;10.90;99.90;;;;;;5072086;28;20032;-79
2022/06/01 04:18:07;;;;;;;19.73;17.63;;;11.00;99.90;;;;;;5083102;28;20032;-79
2022/06/01 04:20:32;;;;;;;22.13;19.25;;;11.00;99.90;;;;;;5091139;28;20047;-80
2022/06/01 04:23:00;;;;;;;23.00;17.75;;;11.00;99.90;;;;;;5087310;28;20509;-79
2022/06/01 04:25:28;;;;;;;22.63;18.40;;;11.00;99.90;;;;;;5082788;28;20545;-79
2022/06/01 04:27:53;;;;;;;21.42;18.55;;;11.00;99.90;;;;;;5087175;28;20513;-79
2022/06/01 04:30:20;;;;;;;22.00;18.70;;;11.00;99.90;;;;;;5090732;28;20036;-79
2022/06/01 04:32:48;;;;;;;18.88;16.85;;;11.00;99.90;;;;;;5081493;28;20040;-79
2022/06/01 04:35:14;;;;;;;24.63;19.25;;;11.00;99.90;;;;;;5083689;28;20040;-79
2022/06/01 04:37:40;;;;;;;22.92;19.08;;;11.00;99.90;;;;;;5087615;28;20044;-79
2022/06/01 04:40:06;;;;;;;22.27;18.30;;;11.10;99.90;;;;;;5086197;28;20046;-79
2022/06/01 04:42:33;;;;;;;23.08;19.10;;;11.10;99.90;;;;;;5091837;28;20444;-79
2022/06/01 04:44:59;;;;;;;20.58;18.30;;;11.10;99.90;;;;;;5090106;28;20036;-79
2022/06/01 04:47:25;;;;;;;28.42;18.83;;;11.10;99.90;;;;;;5071522;28;20465;-80
2022/06/01 04:49:50;;;;;;;23.40;19.55;;;11.00;99.90;;;;;;5087155;28;20039;-79
2022/06/01 04:52:16;;;;;;;25.30;20.23;;;11.10;99.90;;;;;;5079756;28;20032;-79
2022/06/01 04:54:41;;;;;;;21.45;17.70;;;11.10;99.90;;;;;;5081129;28;20115;-80
2022/06/01 04:57:07;;;;;;;20.08;17.60;;;11.10;99.90;;;;;;5071722;28;20052;-79
2022/06/01 04:59:34;;;;;;;23.67;19.58;;;11.10;99.90;;;;;;5086662;28;20040;-78
2022/06/01 05:01:59;;;;;;;20.60;18.40;;;11.20;99.90;;;;;;5084988;28;20100;-79
2022/06/01 05:04:28;;;;;;;25.65;19.90;;;11.30;99.90;;;;;;5075207;28;20040;-79
2022/06/01 05:06:55;;;;;;;25.08;19.67;;;11.40;99.90;;;;;;5086010;28;20039;-80
2022/06/01 05:09:20;;;;;;;25.10;20.40;;;11.30;99.90;;;;;;5091172;28;20044;-80
2022/06/01 05:11:46;;;;;;;22.15;18.05;;;11.40;99.90;;;;;;5090415;28;20039;-79
2022/06/01 05:14:12;;;;;;;21.52;17.83;;;11.40;99.90;;;;;;5089255;28;20035;-79
2022/06/01 05:16:37;;;;;;;22.75;18.08;;;11.40;99.90;;;;;;5082613;28;20482;-79
2022/06/01 05:19:03;;;;;;;21.67;17.15;;;11.40;99.90;;;;;;5090717;28;20089;-79
2022/06/01 05:21:29;;;;;;;19.92;17.55;;;11.40;99.90;;;;;;5090766;28;20050;-79
2022/06/01 05:23:55;;;;;;;19.85;17.75;;;11.50;99.90;;;;;;5090940;28;20122;-79
2022/06/01 05:26:20;;;;;;;21.48;17.65;;;11.50;99.90;;;;;;5090211;28;20135;-79
2022/06/01 05:28:46;;;;;;;22.38;18.42;;;11.50;99.90;;;;;;5090673;28;20123;-79
2022/06/01 05:31:13;;;;;;;20.52;16.55;;;11.50;99.90;;;;;;5090444;28;20457;-79
2022/06/01 05:33:43;;;;;;;21.65;19.00;;;11.50;99.90;;;;;;5090999;28;20397;-79
2022/06/01 05:36:10;;;;;;;19.70;16.90;;;11.50;99.90;;;;;;5090643;28;20047;-80
2022/06/01 05:38:35;;;;;;;18.50;16.42;;;11.50;99.90;;;;;;5091187;28;20071;-79
2022/06/01 05:41:02;;;;;;;18.55;16.23;;;11.50;99.90;;;;;;5077698;28;20497;-79
2022/06/01 05:43:28;;;;;;;20.63;17.65;;;11.60;99.90;;;;;;5069979;28;20045;-79
2022/06/01 05:45:54;;;;;;;19.23;15.38;;;11.60;99.90;;;;;;5053745;28;20048;-79
2022/06/01 05:48:21;;;;;;;19.70;16.52;;;11.60;99.90;;;;;;5070288;28;20044;-79
2022/06/01 05:50:47;;;;;;;22.15;18.13;;;11.60;99.90;;;;;;5073514;28;20040;-80
2022/06/01 05:53:12;;;;;;;18.02;15.85;;;11.50;99.90;;;;;;5074195;28;20167;-79
2022/06/01 05:55:39;;;;;;;23.67;18.23;;;11.50;99.90;;;;;;5075609;28;20032;-79
2022/06/01 05:58:32;;;;;;;19.77;16.33;;;11.50;99.90;;;;;;5083801;28;20036;-79
2022/06/01 06:01:02;;;;;;;18.90;16.83;;;11.50;99.90;;;;;;5083793;28;20059;-81
2022/06/01 06:03:28;;;;;;;18.33;16.08;;;11.50;99.90;;;;;;5073234;28;20032;-81
2022/06/01 06:06:15;;;;;;;19.05;16.67;;;11.50;99.90;;;;;;5074094;28;20094;-80
2022/06/01 06:08:52;;;;;;;17.27;15.18;;;11.50;99.90;;;;;;5072486;28;20043;-80
2022/06/01 06:11:19;;;;;;;18.55;14.82;;;11.60;99.90;;;;;;5071817;28;20028;-80
2022/06/01 06:13:45;;;;;;;16.85;14.75;;;11.70;99.90;;;;;;5071194;28;20051;-80
2022/06/01 06:16:13;;;;;;;18.08;15.73;;;11.80;99.90;;;;;;5088075;28;20039;-80
2022/06/01 06:18:39;;;;;;;17.40;14.80;;;11.90;99.90;;;;;;5090335;28;20047;-79
2022/06/01 06:21:05;;;;;;;17.65;14.80;;;12.00;99.90;;;;;;5089968;28;20151;-79
2022/06/01 06:23:31;;;;;;;16.85;15.05;;;12.00;99.90;;;;;;5089789;28;20066;-79
2022/06/01 06:25:57;;;;;;;19.23;15.15;;;12.10;99.90;;;;;;5089994;28;20443;-79
2022/06/01 06:28:23;;;;;;;15.80;13.63;;;12.20;99.90;;;;;;5089821;28;20464;-79
2022/06/01 06:30:49;;;;;;;15.32;13.45;;;12.40;99.90;;;;;;5072998;28;20036;-79
2022/06/01 06:33:15;;;;;;;16.73;14.55;;;12.50;99.90;;;;;;5089290;28;20046;-79
2022/06/01 06:35:40;;;;;;;16.25;14.60;;;12.60;99.90;;;;;;5079661;28;20399;-79
2022/06/01 06:38:06;;;;;;;17.05;13.95;;;12.70;99.90;;;;;;5077200;28;20044;-79
2022/06/01 06:40:32;;;;;;;15.43;13.30;;;12.80;99.90;;;;;;5070049;28;20041;-79
2022/06/01 06:42:57;;;;;;;15.10;13.50;;;12.90;99.90;;;;;;5069329;28;20124;-79
2022/06/01 06:45:23;;;;;;;16.23;12.98;;;12.90;99.90;;;;;;5069477;28;20048;-78
2022/06/01 06:47:49;;;;;;;15.80;13.32;;;13.00;99.90;;;;;;5069424;28;20414;-79
2022/06/01 06:50:17;;;;;;;12.10;10.82;;;13.10;99.90;;;;;;5069179;28;20520;-78
2022/06/01 06:52:43;;;;;;;12.82;10.25;;;13.20;99.90;;;;;;5070649;28;20042;-78
2022/06/01 06:55:10;;;;;;;11.32;10.13;;;13.30;99.90;;;;;;5090029;28;20173;-78
2022/06/01 06:57:36;;;;;;;13.77;11.38;;;13.40;99.90;;;;;;5089507;28;20081;-78
2022/06/01 07:00:05;;;;;;;9.98;8.70;;;13.60;99.90;;;;;;5089985;28;20051;-78
2022/06/01 07:02:31;;;;;;;10.13;9.02;;;13.70;99.90;;;;;;5093173;28;20056;-78
2022/06/01 07:04:57;;;;;;;11.15;10.00;;;13.80;99.90;;;;;;5093634;28;20043;-78
2022/06/01 07:07:23;;;;;;;10.55;8.38;;;13.90;99.90;;;;;;5093716;28;20454;-78
2022/06/01 07:09:48;;;;;;;10.55;9.15;;;13.90;99.90;;;;;;5093019;28;20462;-78
2022/06/01 07:12:14;;;;;;;11.23;10.15;;;14.10;99.90;;;;;;5092719;28;20040;-78
2022/06/01 07:14:40;;;;;;;14.80;11.10;;;14.20;99.90;;;;;;5079594;28;20032;-78
2022/06/01 07:17:06;;;;;;;9.73;8.82;;;14.40;99.90;;;;;;5072808;28;20119;-78
2022/06/01 07:19:31;;;;;;;8.57;7.68;;;14.50;99.90;;;;;;5072931;28;20040;-78
2022/06/01 07:21:57;;;;;;;9.07;8.18;;;14.50;99.90;;;;;;5072268;28;20052;-78
2022/06/01 07:24:23;;;;;;;7.68;6.57;;;14.60;99.90;;;;;;5072563;28;20055;-77
2022/06/01 07:26:49;;;;;;;9.80;8.80;;;14.70;99.90;;;;;;5072517;28;20124;-77
2022/06/01 07:29:18;;;;;;;9.82;8.82;;;14.70;99.90;;;;;;5087427;28;20040;-78
2022/06/01 07:31:45;;;;;;;13.15;9.85;;;14.80;99.90;;;;;;5081381;28;20032;-78
2022/06/01 07:34:11;;;;;;;10.68;9.05;;;14.90;99.90;;;;;;5072550;28;20050;-77
2022/06/01 07:36:37;;;;;;;10.23;9.23;;;15.00;99.90;;;;;;5072525;28;20123;-78
2022/06/01 07:44:38;;;;;;;10.48;9.38;;;15.20;99.90;;;;;;5073887;28;20048;-78
2022/06/01 07:47:05;;;;;;;8.52;7.60;;;15.60;99.90;;;;;;5092692;28;20086;-77
2022/06/01 07:49:30;;;;;;;8.77;7.88;;;15.80;99.90;;;;;;5092039;28;20036;-78
2022/06/01 07:51:56;;;;;;;8.15;7.20;;;15.90;99.90;;;;;;5092003;28;20165;-77
2022/06/01 07:54:22;;;;;;;7.88;7.10;;;16.00;99.90;;;;;;5092231;28;20469;-77
2022/06/01 07:56:48;;;;;;;5.57;4.32;;;16.10;99.90;;;;;;5092374;28;20131;-77
2022/06/01 07:59:13;;;;;;;4.20;3.80;;;16.30;99.90;;;;;;5075404;28;20040;-77
2022/06/01 08:01:39;;;;;;;5.28;3.95;;;16.40;99.90;;;;;;5091101;28;20494;-78
2022/06/01 08:04:07;;;;;;;6.35;4.15;;;16.50;99.90;;;;;;5085450;28;20036;-78
2022/06/01 08:06:34;;;;;;;5.20;4.70;;;16.50;99.90;;;;;;5088976;28;20047;-77
2022/06/01 08:09:01;;;;;;;5.43;4.88;;;16.30;99.90;;;;;;5074991;28;20048;-77
2022/06/01 08:14:13;;;;;;;4.97;4.53;;;16.00;99.90;;;;;;5091911;28;20040;-78
2022/06/01 08:16:39;;;;;;;6.00;5.40;;;15.70;99.90;;;;;;5092248;28;20040;-79
2022/06/01 08:19:06;;;;;;;6.10;5.50;;;15.40;99.90;;;;;;5101382;28;20441;-81
2022/06/01 08:21:32;;;;;;;6.78;5.85;;;15.10;99.90;;;;;;5099022;28;20047;-80
2022/06/01 08:23:58;;;;;;;7.38;6.70;;;14.80;99.90;;;;;;5100596;28;20042;-81
2022/06/01 08:26:24;;;;;;;7.13;6.43;;;14.50;99.90;;;;;;5096815;28;20492;-81
2022/06/01 08:28:50;;;;;;;9.30;8.13;;;14.20;99.90;;;;;;5098509;28;20092;-81
2022/06/01 08:31:16;;;;;;;8.73;7.72;;;14.00;99.90;;;;;;5096394;28;20036;-80
2022/06/01 08:33:42;;;;;;;7.65;6.93;;;13.90;99.90;;;;;;5099808;28;20129;-81
2022/06/01 08:36:07;;;;;;;6.47;5.85;;;13.50;99.90;;;;;;5099627;28;20040;-81
2022/06/01 08:38:33;;;;;;;7.03;4.07;;;13.30;99.90;;;;;;5101626;28;20119;-82
2022/06/01 08:41:06;;;;;;;3.30;1.92;;;13.20;99.90;;;;;;5098483;28;20040;-82
2022/06/01 08:43:45;;;;;;;2.30;0.55;;;13.10;99.90;;;;;;5065859;28;20043;-82
2022/06/01 08:46:12;;;;;;;1.55;0.50;;;12.90;99.90;;;;;;5099632;28;20529;-82
2022/06/01 08:48:51;;;;;;;1.67;0.40;;;12.70;99.90;;;;;;5083879;28;20494;-83
2022/06/01 08:51:20;;;;;;;0.60;0.40;;;12.50;99.90;;;;;;5085924;28;20059;-83
2022/06/01 08:53:46;;;;;;;1.23;0.82;;;12.30;99.90;;;;;;5100386;28;20032;-82
2022/06/01 08:56:15;;;;;;;1.40;0.40;;;12.10;99.90;;;;;;5087006;28;20032;-83
2022/06/01 08:58:51;;;;;;;1.52;0.60;;;11.90;99.90;;;;;;5085167;28;20039;-82
2022/06/01 09:01:33;;;;;;;0.88;0.40;;;11.80;99.90;;;;;;5102645;28;20071;-83
2022/06/01 09:04:22;;;;;;;1.90;0.50;;;11.90;99.90;;;;;;5100908;28;20040;-82
2022/06/01 09:07:29;;;;;;;1.25;0.30;;;11.90;99.90;;;;;;5098795;28;20040;-81
2022/06/01 09:10:34;;;;;;;0.95;0.40;;;12.00;99.90;;;;;;5099241;28;20134;-80
2022/06/01 09:13:03;;;;;;;1.05;0.20;;;12.20;99.90;;;;;;5096138;28;20123;-80
2022/06/01 09:15:38;;;;;;;1.80;0.10;;;12.50;99.90;;;;;;5096016;28;20044;-80
2022/06/01 09:18:04;;;;;;;0.70;0.20;;;12.80;99.90;;;;;;5096168;28;20055;-80
2022/06/01 09:23:15;;;;;;;1.00;0.10;;;13.60;99.90;;;;;;5077809;28;20052;-80
2022/06/01 09:25:52;;;;;;;0.40;0.20;;;13.90;99.90;;;;;;5093479;28;20498;-80
2022/06/01 09:28:21;;;;;;;0.30;0.10;;;14.40;99.90;;;;;;5075307;28;20044;-79
2022/06/01 09:31:20;;;;;;;0.30;0.10;;;15.00;99.90;;;;;;5093262;28;20047;-80
2022/06/01 09:33:46;;;;;;;0.55;0.10;;;15.80;99.90;;;;;;5092803;28;20040;-80
2022/06/01 09:36:11;;;;;;;0.35;0.20;;;16.40;99.90;;;;;;5092762;28;20036;-80
2022/06/01 09:39:01;;;;;;;1.13;0.10;;;16.80;99.90;;;;;;5090993;28;20048;-79
2022/06/01 09:41:36;;;;;;;0.17;0.00;;;17.30;99.90;;;;;;5089907;28;20036;-79
2022/06/01 09:44:01;;;;;;;;;;;17.70;99.90;;;;;;5092599;28;20087;-78
2022/06/01 09:46:35;;;;;;;0.10;0.00;;;18.10;99.90;;;;;;5073953;28;20005;-78
2022/06/01 09:49:27;;;;;;;0.35;0.10;;;18.50;99.90;;;;;;5090291;28;20127;-78
2022/06/01 09:52:18;;;;;;;0.93;0.10;;;18.60;99.90;;;;;;5089795;28;20032;-78
2022/06/01 09:54:51;;;;;;;0.30;0.10;;;18.80;99.90;;;;;;5090042;28;20032;-78
2022/06/01 09:57:26;;;;;;;0.30;0.10;;;19.30;99.90;;;;;;5089724;28;20044;-78
2022/06/01 10:08:24;;;;;;;1.13;0.20;;;20.70;99.90;;;;;;5091477;28;20056;-80
2022/06/01 10:10:59;;;;;;;3.55;0.63;;;20.70;99.90;;;;;;5091447;28;20040;-80
2022/06/01 10:13:33;;;;;;;4.35;1.33;;;21.00;98.90;;;;;;5088784;28;20081;-79
2022/06/01 10:16:16;;;;;;;5.85;2.38;;;21.20;96.70;;;;;;5090861;28;20040;-80
2022/06/01 10:18:44;;;;;;;2.40;1.52;;;21.40;95.60;;;;;;5091049;28;20044;-80
2022/06/01 10:21:13;;;;;;;1.50;1.33;;;21.80;95.00;;;;;;5093103;28;20043;-79
2022/06/01 10:23:49;;;;;;;1.15;0.60;;;21.70;92.80;;;;;;5095127;28;20398;-80
2022/06/01 10:26:34;;;;;;;0.98;0.40;;;21.80;93.00;;;;;;5090725;28;20488;-79
2022/06/01 10:29:07;;;;;;;2.03;0.43;;;22.30;91.80;;;;;;5091556;28;20100;-79
2022/06/01 10:31:45;;;;;;;1.42;0.30;;;22.70;90.50;;;;;;5092701;28;20073;-80
2022/06/01 10:34:35;;;;;;;1.50;0.63;;;23.00;89.20;;;;;;5074996;28;20047;-79
2022/06/01 10:37:09;;;;;;;0.73;0.32;;;22.80;83.30;;;;;;5095489;28;20032;-79
2022/06/01 10:39:46;;;;;;;1.70;0.65;;;22.50;88.90;;;;;;5094348;28;20040;-80
2022/06/01 10:45:21;;;;;;;1.13;0.40;;;22.20;86.50;;;;;;5087692;28;20569;-77
2022/06/01 10:48:09;;;;;;;3.25;1.08;;;21.70;88.30;;;;;;5093600;28;20036;-76
2022/06/01 10:50:45;;;;;;;1.80;0.60;;;21.30;88.10;;;;;;5093442;28;20048;-77
2022/06/01 10:53:27;;;;;;;1.50;1.10;;;21.50;90.60;;;;;;5093157;28;20051;-77
2022/06/01 10:55:53;;;;;;;1.27;1.08;;;22.00;88.30;;;;;;5094319;28;20036;-76
2022/06/01 10:58:23;;;;;;;2.22;1.25;;;22.50;90.00;;;;;;5092705;28;20036;-77
2022/06/01 11:01:03;;;;;;;1.35;1.00;;;22.80;87.70;;;;;;5093083;28;20494;-76
2022/06/01 11:03:48;;;;;;;2.30;0.80;;;22.40;83.30;;;;;;5076015;28;20406;-76
2022/06/01 11:06:31;;;;;;;1.08;0.90;;;21.90;85.40;;;;;;5076534;28;20051;-76
2022/06/01 11:09:22;;;;;;;1.48;0.82;;;21.70;85.00;;;;;;5092879;28;20097;-77
2022/06/01 11:11:58;;;;;;;1.92;1.13;;;22.20;85.90;;;;;;5092866;28;20406;-78
2022/06/01 11:14:46;;;;;;;2.63;0.85;;;22.70;89.50;;;;;;5075678;28;20101;-78
2022/06/01 11:17:29;;;;;;;2.10;1.25;;;23.20;87.30;;;;;;5073000;28;20044;-77
2022/06/01 11:20:14;;;;;;;1.70;0.77;;;23.00;83.60;;;;;;5073156;28;20066;-77
2022/06/01 11:22:51;;;;;;;1.13;0.80;;;22.50;77.90;;;;;;5074701;28;20182;-77
2022/06/01 11:25:34;;;;;;;1.08;0.95;;;21.90;81.90;;;;;;5082876;28;20387;-78
2022/06/01 11:28:02;;;;;;;1.00;0.82;;;21.30;83.30;;;;;;5092132;28;20394;-77
2022/06/01 11:30:46;;;;;;;1.75;0.82;;;20.40;86.10;;;;;;5092392;28;20123;-77
2022/06/01 11:33:45;;;;;;;1.40;0.73;;;19.60;84.90;;;;;;5092684;28;20040;-77
2022/06/01 11:36:17;;;;;;;0.95;0.50;;;18.60;87.70;;;;;;5092967;28;20338;-77
2022/06/01 11:38:49;;;;;;;2.05;1.02;;;17.00;92.00;;;;;;5076045;28;20043;-77
2022/06/01 11:41:31;;;;;;;1.05;0.65;;;15.80;94.90;;;;;;5076140;28;20044;-79
2022/06/01 11:43:59;;;;;;;2.13;1.50;;;14.80;99.90;;;;;;5097944;28;20052;-81
2022/06/01 11:47:05;;;;;;;3.45;1.60;;;14.20;99.90;;;;;;5097530;28;20037;-81
2022/06/01 11:49:39;;;;;;;1.73;1.05;;;13.60;99.90;;;;;;5080740;28;20105;-81
2022/06/01 11:52:32;;;;;;;3.50;1.48;;;13.00;99.90;;;;;;5082865;28;20063;-82
2022/06/01 11:55:15;;;;;;;3.75;2.30;;;12.50;99.90;;;;;;5091982;28;20036;-83
2022/06/01 11:57:44;;;;;;;3.35;1.13;;;12.20;99.90;;;;;;5100371;28;20039;-82
2022/06/01 12:00:19;;;;;;;1.80;0.20;;;12.10;99.90;;;;;;5099781;28;20591;-82
2022/06/01 12:02:47;;;;;;;0.85;0.20;;;12.10;99.90;;;;;;5081231;28;20063;-84
2022/06/01 12:05:39;;;;;;;1.52;0.20;;;12.10;99.90;;;;;;5078128;28;20070;-84
2022/06/01 12:08:21;;;;;;;1.48;0.20;;;12.30;99.90;;;;;;5077462;28;20043;-83
2022/06/01 12:11:06;;;;;;;1.33;0.20;;;12.50;99.90;;;;;;5077484;28;20050;-83
2022/06/01 12:13:52;;;;;;;1.65;0.20;;;12.80;99.90;;;;;;5094459;28;20154;-82
2022/06/01 12:16:18;;;;;;;0.35;0.10;;;13.10;99.90;;;;;;5094604;28;20048;-83
2022/06/01 12:18:59;;;;;;;0.30;0.13;;;13.40;99.90;;;;;;5078307;28;20062;-82
2022/06/01 12:21:30;;;;;;;0.95;0.20;;;13.70;99.90;;;;;;5096577;28;20103;-82
2022/06/01 12:30:08;;;;;;;0.52;0.20;;;15.00;99.90;;;;;;5075321;28;20052;-80
2022/06/01 12:33:07;;;;;;;0.30;0.13;;;15.50;99.90;;;;;;5060326;28;20076;-81
2022/06/01 12:35:42;;;;;;;0.40;0.20;;;15.90;99.90;;;;;;5059013;28;20079;-80
2022/06/01 12:38:15;;;;;;;1.13;0.40;;;16.20;99.90;;;;;;5073623;28;20041;-80
2022/06/01 12:40:52;;;;;;;0.60;0.20;;;16.70;99.90;;;;;;5071558;28;20044;-79
2022/06/01 12:43:18;;;;;;;0.30;0.10;;;17.20;99.90;;;;;;5090839;28;20371;-79
2022/06/01 12:45:44;;;;;;;1.42;0.43;;;17.40;99.90;;;;;;5074930;28;20066;-79
2022/06/01 12:48:19;;;;;;;2.13;0.10;;;17.30;99.90;;;;;;5091236;28;20047;-79
2022/06/01 12:50:56;;;;;;;;;;;17.10;99.90;;;;;;5091386;28;20044;-79
2022/06/01 12:53:49;;;;;;;1.77;0.10;;;17.40;99.90;;;;;;5092471;28;20006;-80
2022/06/01 12:56:22;;;;;;;0.50;0.10;;;18.00;99.90;;;;;;5070576;28;20040;-79
2022/06/01 12:58:50;;;;;;;0.17;0.10;;;18.60;99.90;;;;;;5073458;28;20084;-80
2022/06/01 13:01:23;;;;;;;1.02;0.10;;;19.00;99.90;;;;;;5077604;28;20495;-80
2022/06/01 13:03:50;;;;;;;1.20;0.10;;;19.20;99.90;;;;;;5077308;28;20162;-80
2022/06/01 13:06:24;;;;;;;1.60;0.35;;;19.50;99.90;;;;;;5076997;28;20036;-80
2022/06/01 13:09:08;;;;;;;0.50;0.22;;;19.60;99.90;;;;;;5080430;28;20048;-81
2022/06/01 13:11:34;;;;;;;1.00;0.20;;;19.70;99.90;;;;;;5094050;28;20066;-82
2022/06/01 13:14:04;;;;;;;0.50;0.10;;;19.70;99.90;;;;;;5076519;28;20040;-80
2022/06/01 13:16:39;;;;;;;0.50;0.20;;;19.60;99.90;;;;;;5059824;28;20105;-80
2022/06/01 13:19:27;;;;;;;1.67;0.30;;;19.70;99.90;;;;;;5075469;28;20044;-79
2022/06/01 13:21:58;;;;;;;0.80;0.30;;;20.10;99.90;;;;;;5074045;28;20589;-80
2022/06/01 13:24:25;;;;;;;0.63;0.40;;;20.50;99.10;;;;;;5084068;28;20456;-80
2022/06/01 13:26:54;;;;;;;0.82;0.47;;;20.70;97.00;;;;;;5097687;28;20498;-80
2022/06/01 13:29:19;;;;;;;1.10;0.50;;;20.50;95.40;;;;;;5096511;28;20048;-80
2022/06/01 13:31:51;;;;;;;1.25;0.20;;;19.70;94.30;;;;;;5078851;28;20039;-84
2022/06/01 13:34:41;;;;;;;1.95;0.38;;;18.80;94.30;;;;;;5092291;28;20036;-78